createdAt,value
2018-10-06T00:00:11.901Z,16.37
2018-10-06T00:02:42.364Z,16.43
2018-10-06T00:05:11.577Z,16.47
2018-10-06T00:07:40.805Z,16.53
2018-10-06T00:10:10.136Z,16.58
2018-10-06T00:12:39.260Z,16.65
2018-10-06T00:15:08.724Z,16.70
2018-10-06T00:17:38.033Z,16.75
2018-10-06T00:20:08.476Z,16.78
2018-10-06T00:22:37.516Z,16.81
2018-10-06T00:25:06.933Z,16.85
2018-10-06T00:27:35.972Z,16.88
2018-10-06T00:30:05.200Z,16.89
2018-10-06T00:35:03.242Z,16.91
2018-10-06T00:37:32.405Z,16.89
2018-10-06T00:40:01.714Z,16.89
2018-10-06T00:42:30.753Z,16.88
2018-10-06T00:44:59.782Z,16.88
2018-10-06T00:47:28.854Z,16.87
2018-10-06T00:49:58.797Z,16.84
2018-10-06T00:52:27.864Z,16.83
2018-10-06T00:54:56.935Z,16.82
2018-10-06T00:57:26.022Z,16.78
2018-10-06T00:59:55.076Z,16.77
2018-10-06T01:02:24.107Z,16.74
2018-10-06T01:04:53.143Z,16.73
2018-10-06T01:07:22.205Z,16.73
2018-10-06T01:09:51.277Z,16.72
2018-10-06T01:12:20.829Z,16.71
2018-10-06T01:14:49.850Z,16.71
2018-10-06T01:17:18.849Z,16.69
2018-10-06T01:19:48.380Z,16.68
2018-10-06T01:22:17.473Z,16.65
2018-10-06T01:24:46.517Z,16.61
2018-10-06T01:27:15.707Z,16.60
2018-10-06T01:29:44.880Z,16.57
2018-10-06T01:32:13.972Z,16.54
2018-10-06T01:34:44.228Z,16.52
2018-10-06T01:37:13.449Z,16.49
2018-10-06T01:39:42.604Z,16.49
2018-10-06T01:42:11.723Z,16.47
2018-10-06T01:44:40.846Z,16.46
2018-10-06T01:47:09.909Z,16.45
2018-10-06T01:49:38.897Z,16.43
2018-10-06T01:52:07.884Z,16.44
2018-10-06T01:54:36.912Z,16.43
2018-10-06T01:57:06.016Z,16.40
2018-10-06T01:59:35.069Z,16.41
2018-10-06T02:02:04.059Z,16.39
2018-10-06T02:04:34.305Z,16.37
2018-10-06T02:07:04.368Z,16.36
2018-10-06T02:09:33.512Z,16.34
2018-10-06T02:12:02.535Z,16.33
2018-10-06T02:14:31.653Z,16.29
2018-10-06T02:17:00.705Z,16.29
2018-10-06T02:19:29.696Z,16.28
2018-10-06T02:21:58.730Z,16.27
2018-10-06T02:24:27.688Z,16.26
2018-10-06T02:26:56.824Z,16.27
2018-10-06T02:29:25.872Z,16.25
2018-10-06T02:31:55.165Z,16.25
2018-10-06T02:34:24.177Z,16.23
2018-10-06T02:36:53.529Z,16.21
2018-10-06T02:39:23.085Z,16.18
2018-10-06T02:41:53.266Z,16.12
2018-10-06T02:44:23.267Z,16.10
2018-10-06T02:46:53.211Z,16.07
2018-10-06T02:49:23.401Z,16.03
2018-10-06T02:51:53.325Z,16.01
2018-10-06T02:54:23.518Z,15.97
2018-10-06T02:56:52.516Z,15.96
2018-10-06T02:59:21.597Z,15.94
2018-10-06T03:01:50.676Z,15.92
2018-10-06T03:04:19.700Z,15.92
2018-10-06T03:06:48.761Z,15.94
2018-10-06T03:09:18.142Z,15.93
2018-10-06T03:11:47.265Z,15.90
2018-10-06T03:14:16.388Z,15.90
2018-10-06T03:16:45.416Z,15.92
2018-10-06T03:19:14.546Z,15.93
2018-10-06T03:21:43.647Z,15.93
2018-10-06T03:24:12.698Z,15.94
2018-10-06T03:26:41.807Z,15.95
2018-10-06T03:29:10.836Z,15.96
2018-10-06T03:31:39.977Z,15.99
2018-10-06T03:34:09.341Z,16.01
2018-10-06T03:36:38.451Z,16.04
2018-10-06T03:39:08.025Z,16.05
2018-10-06T03:41:37.020Z,16.07
2018-10-06T03:44:06.040Z,16.07
2018-10-06T03:46:35.038Z,16.06
2018-10-06T03:49:04.157Z,16.06
2018-10-06T03:51:33.185Z,16.08
2018-10-06T03:54:02.286Z,16.09
2018-10-06T03:56:31.320Z,16.09
2018-10-06T03:59:00.511Z,16.09
2018-10-06T04:01:29.500Z,16.11
2018-10-06T04:03:58.503Z,16.11
2018-10-06T04:06:27.497Z,16.10
2018-10-06T04:08:56.668Z,16.11
2018-10-06T04:11:25.656Z,16.11
2018-10-06T04:13:54.889Z,16.12
2018-10-06T04:16:23.940Z,16.12
2018-10-06T04:18:52.998Z,16.13
2018-10-06T04:21:22.061Z,16.12
2018-10-06T04:23:51.361Z,16.12
2018-10-06T04:26:20.476Z,16.13
2018-10-06T04:28:49.829Z,16.12
2018-10-06T04:31:18.841Z,16.11
2018-10-06T04:33:47.977Z,16.11
2018-10-06T04:36:17.080Z,16.08
2018-10-06T04:38:47.317Z,16.05
2018-10-06T04:41:17.658Z,16.05
2018-10-06T04:43:46.810Z,16.03
2018-10-06T04:46:16.048Z,16.02
2018-10-06T04:48:45.327Z,16.00
2018-10-06T04:51:16.073Z,16.00
2018-10-06T04:53:45.378Z,15.97
2018-10-06T04:56:14.644Z,15.97
2018-10-06T04:58:43.945Z,15.94
2018-10-06T05:01:13.306Z,15.94
2018-10-06T05:03:42.725Z,15.91
2018-10-06T05:06:12.034Z,15.92
2018-10-06T05:08:41.365Z,15.91
2018-10-06T05:11:10.763Z,15.91
2018-10-06T05:13:39.920Z,15.90
2018-10-06T05:16:11.315Z,15.88
2018-10-06T05:18:40.516Z,15.88
2018-10-06T05:21:09.800Z,15.86
2018-10-06T05:23:38.985Z,15.85
2018-10-06T05:26:08.079Z,15.84
2018-10-06T05:28:37.309Z,15.84
2018-10-06T05:31:06.593Z,15.84
2018-10-06T05:33:35.813Z,15.85
2018-10-06T05:36:04.997Z,15.85
2018-10-06T05:38:34.172Z,15.86
2018-10-06T05:41:03.390Z,15.85
2018-10-06T05:43:32.542Z,15.84
2018-10-06T05:46:01.808Z,15.84
2018-10-06T05:48:30.994Z,15.85
2018-10-06T05:51:00.613Z,15.84
2018-10-06T05:53:30.145Z,15.84
2018-10-06T05:55:59.498Z,15.88
2018-10-06T05:58:28.766Z,15.90
2018-10-06T06:00:58.194Z,15.97
2018-10-06T06:03:27.263Z,16.04
2018-10-06T06:05:56.498Z,16.13
2018-10-06T06:08:26.168Z,16.24
2018-10-06T06:10:55.525Z,16.39
2018-10-06T06:13:24.848Z,16.60
2018-10-06T06:15:54.481Z,16.90
2018-10-06T06:18:23.629Z,17.27
2018-10-06T06:20:52.927Z,17.69
2018-10-06T06:23:22.125Z,18.18
2018-10-06T06:25:51.262Z,18.73
2018-10-06T06:28:20.561Z,19.31
2018-10-06T06:30:49.758Z,19.93
2018-10-06T06:33:19.096Z,20.52
2018-10-06T06:35:48.569Z,21.03
2018-10-06T06:38:17.938Z,21.39
2018-10-06T06:40:47.228Z,21.70
2018-10-06T06:43:16.509Z,22.04
2018-10-06T06:45:45.948Z,22.43
2018-10-06T06:48:15.229Z,22.90
2018-10-06T06:50:45.008Z,23.29
2018-10-06T06:53:14.382Z,23.63
2018-10-06T06:55:43.638Z,23.95
2018-10-06T06:58:13.257Z,24.29
2018-10-06T07:00:42.456Z,24.65
2018-10-06T07:03:11.717Z,25.08
2018-10-06T07:05:41.226Z,25.60
2018-10-06T07:08:11.138Z,26.26
2018-10-06T07:10:40.844Z,26.91
2018-10-06T07:13:09.905Z,27.59
2018-10-06T07:15:39.145Z,28.24
2018-10-06T07:18:10.218Z,28.95
2018-10-06T07:20:39.999Z,29.59
2018-10-06T07:23:09.272Z,30.26
2018-10-06T07:25:38.641Z,30.95
2018-10-06T07:28:07.668Z,31.52
2018-10-06T07:30:36.962Z,32.00
2018-10-06T07:33:06.084Z,32.49
2018-10-06T07:35:35.459Z,33.04
2018-10-06T07:38:06.267Z,33.66
2018-10-06T07:40:35.500Z,34.15
2018-10-06T07:43:04.679Z,34.51
2018-10-06T07:45:33.807Z,34.83
2018-10-06T07:48:03.105Z,35.15
2018-10-06T07:50:32.229Z,35.32
2018-10-06T07:53:01.652Z,35.53
2018-10-06T07:55:31.029Z,35.80
2018-10-06T07:58:00.328Z,36.11
2018-10-06T08:00:29.760Z,36.42
2018-10-06T08:02:58.944Z,36.73
2018-10-06T08:05:28.249Z,37.17
2018-10-06T08:07:57.394Z,37.67
2018-10-06T08:10:26.498Z,38.06
2018-10-06T08:12:55.915Z,38.26
2018-10-06T08:15:26.389Z,38.15
2018-10-06T08:17:55.640Z,37.94
2018-10-06T08:20:25.050Z,37.69
2018-10-06T08:22:54.453Z,37.48
2018-10-06T08:25:23.996Z,37.33
2018-10-06T08:27:53.341Z,37.30
2018-10-06T08:30:22.642Z,37.23
2018-10-06T08:32:52.220Z,37.12
2018-10-06T08:35:21.482Z,37.03
2018-10-06T08:37:50.618Z,36.92
2018-10-06T08:40:20.003Z,36.80
2018-10-06T08:42:49.647Z,36.62
2018-10-06T08:45:19.178Z,36.44
2018-10-06T08:47:48.701Z,36.26
2018-10-06T08:50:18.309Z,36.20
2018-10-06T08:52:47.908Z,35.95
2018-10-06T08:55:17.500Z,35.60
2018-10-06T08:57:46.912Z,35.35
2018-10-06T09:00:17.181Z,35.17
2018-10-06T09:02:46.442Z,35.12
2018-10-06T09:05:15.766Z,35.13
2018-10-06T09:07:45.282Z,35.21
2018-10-06T09:10:14.724Z,35.11
2018-10-06T09:12:44.541Z,34.89
2018-10-06T09:15:14.041Z,34.64
2018-10-06T09:17:43.573Z,34.38
2018-10-06T09:20:13.210Z,34.15
2018-10-06T09:22:42.458Z,33.91
2018-10-06T09:25:11.874Z,33.77
2018-10-06T09:27:41.425Z,33.71
2018-10-06T09:30:10.735Z,33.77
2018-10-06T09:32:39.948Z,33.75
2018-10-06T09:35:09.132Z,33.80
2018-10-06T09:37:38.410Z,33.92
2018-10-06T09:40:07.690Z,34.06
2018-10-06T09:42:37.231Z,34.16
2018-10-06T09:45:06.468Z,34.30
2018-10-06T09:47:35.739Z,34.49
2018-10-06T09:50:05.226Z,34.63
2018-10-06T09:52:34.501Z,34.66
2018-10-06T09:55:03.762Z,34.81
2018-10-06T09:57:32.976Z,35.09
2018-10-06T10:00:02.442Z,35.43
2018-10-06T10:02:37.056Z,35.67
2018-10-06T10:05:11.582Z,35.73
2018-10-06T10:07:41.004Z,35.66
2018-10-06T10:10:10.578Z,35.69
2018-10-06T10:12:40.147Z,35.57
2018-10-06T10:15:09.331Z,35.18
2018-10-06T10:17:38.870Z,34.74
2018-10-06T10:20:07.691Z,34.39
2018-10-06T10:22:37.780Z,34.13
2018-10-06T10:25:06.938Z,33.88
2018-10-06T10:27:36.087Z,33.69
2018-10-06T10:30:06.923Z,33.52
2018-10-06T10:32:36.409Z,33.39
2018-10-06T10:35:06.367Z,33.24
2018-10-06T10:37:35.983Z,33.07
2018-10-06T10:40:05.529Z,32.89
2018-10-06T10:42:34.786Z,32.79
2018-10-06T10:45:04.290Z,32.70
2018-10-06T10:47:34.031Z,32.64
2018-10-06T10:50:03.193Z,32.61
2018-10-06T10:52:32.748Z,32.63
2018-10-06T10:55:02.176Z,32.58
2018-10-06T10:57:31.730Z,32.41
2018-10-06T11:00:01.548Z,32.17
2018-10-06T11:02:30.573Z,32.08
2018-10-06T11:05:00.277Z,31.99
2018-10-06T11:07:30.863Z,31.86
2018-10-06T11:10:00.149Z,31.88
2018-10-06T11:12:30.621Z,31.88
2018-10-06T11:14:59.956Z,31.95
2018-10-06T11:19:26.797Z,31.97
2018-10-06T11:21:56.722Z,31.69
2018-10-06T11:24:26.194Z,31.56
2018-10-06T11:26:55.736Z,31.53
2018-10-06T11:29:25.410Z,31.61
2018-10-06T11:31:54.916Z,31.66
2018-10-06T11:34:24.581Z,31.75
2018-10-06T11:36:54.265Z,31.79
2018-10-06T11:39:23.820Z,31.70
2018-10-06T11:41:53.384Z,31.64
2018-10-06T11:44:22.896Z,31.63
2018-10-06T11:46:52.332Z,31.56
2018-10-06T11:49:22.263Z,31.47
2018-10-06T11:51:51.740Z,31.35
2018-10-06T11:54:21.240Z,31.13
2018-10-06T11:56:51.988Z,30.86
2018-10-06T11:59:22.771Z,30.66
2018-10-06T12:01:51.939Z,30.53
2018-10-06T12:04:21.544Z,30.39
2018-10-06T12:06:57.504Z,30.23
2018-10-06T12:09:27.763Z,30.02
2018-10-06T12:11:57.361Z,29.88
2018-10-06T12:14:26.927Z,29.74
2018-10-06T12:16:56.149Z,29.60
2018-10-06T12:19:26.882Z,29.48
2018-10-06T12:22:02.976Z,29.42
2018-10-06T12:24:32.252Z,29.38
2018-10-06T12:27:01.845Z,29.35
2018-10-06T12:29:31.243Z,29.30
2018-10-06T12:32:00.764Z,29.24
2018-10-06T12:34:30.296Z,29.21
2018-10-06T12:36:59.906Z,29.17
2018-10-06T12:39:29.198Z,29.16
2018-10-06T12:41:59.126Z,29.16
2018-10-06T12:44:28.391Z,29.11
2018-10-06T12:46:57.607Z,29.10
2018-10-06T12:49:27.240Z,29.13
2018-10-06T12:51:56.644Z,29.17
2018-10-06T12:54:25.906Z,29.23
2018-10-06T12:56:55.287Z,29.24
2018-10-06T12:59:24.839Z,29.22
2018-10-06T13:01:54.253Z,29.23
2018-10-06T13:04:25.103Z,29.24
2018-10-06T13:06:54.561Z,29.24
2018-10-06T13:09:24.337Z,29.21
2018-10-06T13:11:54.101Z,29.16
2018-10-06T13:14:24.058Z,29.12
2018-10-06T13:16:53.288Z,29.09
2018-10-06T13:19:23.340Z,29.43
2018-10-06T13:21:55.738Z,29.30
2018-10-06T13:24:26.195Z,29.13
2018-10-06T13:26:56.264Z,28.99
2018-10-06T13:29:25.946Z,28.91
2018-10-06T13:31:55.477Z,28.83
2018-10-06T13:34:25.623Z,28.79
2018-10-06T13:36:54.876Z,28.76
2018-10-06T13:39:24.596Z,28.75
2018-10-06T13:41:53.877Z,28.68
2018-10-06T13:44:23.033Z,28.63
2018-10-06T13:46:52.456Z,28.59
2018-10-06T13:49:21.910Z,28.54
2018-10-06T13:51:51.769Z,28.52
2018-10-06T13:54:21.555Z,28.50
2018-10-06T13:56:50.766Z,28.50
2018-10-06T13:59:20.297Z,28.45
2018-10-06T14:01:49.987Z,28.43
2018-10-06T14:04:20.067Z,28.39
2018-10-06T14:06:49.419Z,28.35
2018-10-06T14:09:19.067Z,28.32
2018-10-06T14:11:48.249Z,28.29
2018-10-06T14:14:17.805Z,28.27
2018-10-06T14:16:47.392Z,28.26
2018-10-06T14:19:16.759Z,28.24
2018-10-06T14:21:46.489Z,28.24
2018-10-06T14:24:15.906Z,28.20
2018-10-06T14:26:45.485Z,28.18
2018-10-06T14:29:15.369Z,28.15
2018-10-06T14:31:44.437Z,28.15
2018-10-06T14:34:13.966Z,28.16
2018-10-06T14:36:43.810Z,28.17
2018-10-06T14:39:13.307Z,28.16
2018-10-06T14:41:43.630Z,28.14
2018-10-06T14:44:13.366Z,28.17
2018-10-06T14:46:42.829Z,28.15
2018-10-06T14:49:12.348Z,28.17
2018-10-06T14:51:42.244Z,28.18
2018-10-06T14:54:11.698Z,28.17
2018-10-06T14:56:41.242Z,28.16
2018-10-06T14:59:10.839Z,28.19
2018-10-06T15:01:40.448Z,28.17
2018-10-06T15:04:11.185Z,28.17
2018-10-06T15:06:41.279Z,28.16
2018-10-06T15:09:11.846Z,28.13
2018-10-06T15:11:41.606Z,28.08
2018-10-06T15:19:08.195Z,27.75
2018-10-06T15:21:38.398Z,27.77
2018-10-06T15:24:08.237Z,27.78
2018-10-06T15:26:37.793Z,27.79
2018-10-06T15:29:07.315Z,27.79
2018-10-06T15:31:37.971Z,27.80
2018-10-06T15:34:07.224Z,27.78
2018-10-06T15:36:37.172Z,27.79
2018-10-06T15:39:08.585Z,27.74
2018-10-06T15:41:38.955Z,27.71
2018-10-06T15:44:08.575Z,27.69
2018-10-06T15:46:37.804Z,27.66
2018-10-06T15:49:07.438Z,27.65
2018-10-06T15:51:36.777Z,27.63
2018-10-06T15:54:06.196Z,27.54
2018-10-06T15:56:35.714Z,27.53
2018-10-06T15:59:04.851Z,27.47
2018-10-06T16:01:33.993Z,27.43
2018-10-06T16:04:03.244Z,27.39
2018-10-06T16:06:33.348Z,27.36
2018-10-06T16:09:02.467Z,27.34
2018-10-06T16:11:31.985Z,27.28
2018-10-06T16:14:01.239Z,27.24
2018-10-06T16:16:30.923Z,27.20
2018-10-06T16:19:00.312Z,27.18
2018-10-06T16:21:30.326Z,27.14
2018-10-06T16:23:59.665Z,27.09
2018-10-06T16:26:29.825Z,27.03
2018-10-06T16:28:59.715Z,27.01
2018-10-06T16:31:28.890Z,26.95
2018-10-06T16:33:58.921Z,26.90
2018-10-06T16:36:28.139Z,26.85
2018-10-06T16:38:57.314Z,26.81
2018-10-06T16:41:29.023Z,26.74
2018-10-06T16:43:58.208Z,26.68
2018-10-06T16:46:27.320Z,26.63
2018-10-06T16:48:56.794Z,26.58
2018-10-06T16:51:26.027Z,26.54
2018-10-06T16:53:55.224Z,26.48
2018-10-06T16:56:24.547Z,26.43
2018-10-06T16:58:54.765Z,26.37
2018-10-06T17:01:24.477Z,26.32
2018-10-06T17:03:53.624Z,26.39
2018-10-06T17:06:23.006Z,26.33
2018-10-06T17:08:52.110Z,26.22
2018-10-06T17:11:21.547Z,26.11
2018-10-06T17:13:50.887Z,25.96
2018-10-06T17:16:20.486Z,25.85
2018-10-06T17:18:49.992Z,25.74
2018-10-06T17:21:19.984Z,25.61
2018-10-06T17:23:49.149Z,25.49
2018-10-06T17:26:18.716Z,25.37
2018-10-06T17:28:48.611Z,25.23
2018-10-06T17:31:19.084Z,25.10
2018-10-06T17:33:48.954Z,24.97
2018-10-06T17:36:19.091Z,24.82
2018-10-06T17:38:48.672Z,24.69
2018-10-06T17:41:17.951Z,24.57
2018-10-06T17:43:47.238Z,24.42
2018-10-06T17:46:16.594Z,24.29
2018-10-06T17:48:46.203Z,24.17
2018-10-06T17:51:15.768Z,24.03
2018-10-06T17:53:44.956Z,23.88
2018-10-06T17:56:15.185Z,23.76
2018-10-06T17:58:44.349Z,23.63
2018-10-06T18:01:14.630Z,23.52
2018-10-06T18:03:45.197Z,23.37
2018-10-06T18:06:15.646Z,23.26
2018-10-06T18:08:46.517Z,23.14
2018-10-06T18:11:15.912Z,23.05
2018-10-06T18:13:46.207Z,22.95
2018-10-06T18:16:16.205Z,22.86
2018-10-06T18:18:45.608Z,22.74
2018-10-06T18:21:15.051Z,22.63
2018-10-06T18:23:45.190Z,22.51
2018-10-06T18:26:15.738Z,22.38
2018-10-06T18:28:45.734Z,22.27
2018-10-06T18:31:15.774Z,22.18
2018-10-06T18:33:45.422Z,22.09
2018-10-06T18:36:15.504Z,21.99
2018-10-06T18:38:45.714Z,21.91
2018-10-06T18:41:15.940Z,21.84
2018-10-06T18:43:46.510Z,21.76
2018-10-06T18:46:16.606Z,21.69
2018-10-06T18:48:46.323Z,21.65
2018-10-06T18:51:15.713Z,21.61
2018-10-06T18:53:45.537Z,21.60
2018-10-06T18:56:15.358Z,21.62
2018-10-06T18:58:45.227Z,21.63
2018-10-06T19:01:15.035Z,21.65
2018-10-06T19:03:46.072Z,21.67
2018-10-06T19:06:15.839Z,21.70
2018-10-06T19:08:45.748Z,21.73
2018-10-06T19:11:15.356Z,21.75
2018-10-06T19:13:44.700Z,21.78
2018-10-06T19:16:14.240Z,21.80
2018-10-06T19:18:43.713Z,21.82
2018-10-06T19:21:13.621Z,21.82
2018-10-06T19:23:43.516Z,21.81
2018-10-06T19:26:14.324Z,21.80
2018-10-06T19:28:43.799Z,21.77
2018-10-06T19:31:13.461Z,21.73
2018-10-06T19:33:43.448Z,21.68
2018-10-06T19:36:13.412Z,21.63
2018-10-06T19:38:42.867Z,21.56
2018-10-06T19:41:14.583Z,21.48
2018-10-06T19:43:46.706Z,21.41
2018-10-06T19:46:17.790Z,21.35
2018-10-06T19:48:47.276Z,21.28
2018-10-06T19:51:16.657Z,21.23
2018-10-06T19:53:47.035Z,21.18
2018-10-06T19:56:16.363Z,21.14
2018-10-06T19:58:45.712Z,21.09
2018-10-06T20:01:15.033Z,21.00
2018-10-06T20:03:44.411Z,20.93
2018-10-06T20:06:13.817Z,20.86
2018-10-06T20:08:44.175Z,20.78
2018-10-06T20:11:14.635Z,20.72
2018-10-06T20:13:45.024Z,20.66
2018-10-06T20:16:14.548Z,20.59
2018-10-06T20:18:44.102Z,20.52
2018-10-06T20:21:15.149Z,20.46
2018-10-06T20:23:44.975Z,20.41
2018-10-06T20:26:14.858Z,20.35
2018-10-06T20:31:21.252Z,20.24
2018-10-06T20:33:50.647Z,20.19
2018-10-06T20:36:20.103Z,20.14
2018-10-06T20:38:49.635Z,20.11
2018-10-06T20:41:19.473Z,20.07
2018-10-06T20:43:49.250Z,20.05
2018-10-06T20:46:19.095Z,20.03
2018-10-06T20:48:48.923Z,20.00
2018-10-06T20:51:18.433Z,19.97
2018-10-06T20:53:48.533Z,19.96
2018-10-06T20:56:18.566Z,19.94
2018-10-06T20:58:48.897Z,19.91
2018-10-06T21:01:19.042Z,19.89
2018-10-06T21:03:48.395Z,19.87
2018-10-06T21:06:17.710Z,19.87
2018-10-06T21:08:47.714Z,19.84
2018-10-06T21:11:19.236Z,19.82
2018-10-06T21:13:49.345Z,19.80
2018-10-06T21:16:18.540Z,19.76
2018-10-06T21:18:47.784Z,19.75
2018-10-06T21:21:17.259Z,19.70
2018-10-06T21:23:48.828Z,19.63
2018-10-06T21:26:19.522Z,19.56
2018-10-06T21:28:49.295Z,19.51
2018-10-06T21:31:18.706Z,19.42
2018-10-06T21:33:48.105Z,19.37
2018-10-06T21:36:17.573Z,19.29
2018-10-06T21:38:47.041Z,19.21
2018-10-06T21:41:16.972Z,19.12
2018-10-06T21:43:46.331Z,19.05
2018-10-06T21:46:15.846Z,18.98
2018-10-06T21:48:45.424Z,18.91
2018-10-06T21:51:15.096Z,18.86
2018-10-06T21:53:44.403Z,18.84
2018-10-06T21:56:13.953Z,18.81
2018-10-06T21:58:44.384Z,18.80
2018-10-06T22:01:14.602Z,18.79
2018-10-06T22:03:44.042Z,18.79
2018-10-06T22:06:13.769Z,18.80
2018-10-06T22:08:43.042Z,18.81
2018-10-06T22:11:12.311Z,18.84
2018-10-06T22:13:41.920Z,18.86
2018-10-06T22:16:11.316Z,18.88
2018-10-06T22:18:40.599Z,18.89
2018-10-06T22:21:10.739Z,18.88
2018-10-06T22:26:15.505Z,18.87
2018-10-06T22:28:45.223Z,18.88
2018-10-06T22:31:15.281Z,18.89
2018-10-06T22:33:45.142Z,18.89
2018-10-06T22:36:14.787Z,18.92
2018-10-06T22:38:51.028Z,18.95
2018-10-06T22:41:20.180Z,18.95
2018-10-06T22:43:49.383Z,18.94
2018-10-06T22:46:19.036Z,18.96
2018-10-06T22:48:48.225Z,18.98
2018-10-06T22:51:18.200Z,19.00
2018-10-06T22:53:47.763Z,19.02
2018-10-06T22:56:16.882Z,19.03
2018-10-06T22:58:46.182Z,19.05
2018-10-06T23:01:15.517Z,19.08
2018-10-06T23:03:44.698Z,19.10
2018-10-06T23:06:15.187Z,19.11
2018-10-06T23:08:44.888Z,19.14
2018-10-06T23:11:14.161Z,19.15
2018-10-06T23:13:43.706Z,19.15
2018-10-06T23:16:13.112Z,19.17
2018-10-06T23:18:42.394Z,19.16
2018-10-06T23:21:11.588Z,19.17
2018-10-06T23:23:40.784Z,19.18
2018-10-06T23:26:09.909Z,19.20
2018-10-06T23:28:39.219Z,19.22
2018-10-06T23:31:08.341Z,19.25
2018-10-06T23:33:37.588Z,19.29
2018-10-06T23:36:07.086Z,19.34
2018-10-06T23:38:36.321Z,19.39
2018-10-06T23:41:05.694Z,19.44
2018-10-06T23:43:34.798Z,19.47
2018-10-06T23:46:04.120Z,19.49
2018-10-06T23:48:33.339Z,19.52
2018-10-06T23:51:02.712Z,19.54
2018-10-06T23:53:32.081Z,19.55
2018-10-06T23:56:02.069Z,19.58
2018-10-06T23:58:31.255Z,19.55
